Time;durP1;ratioP1;P1;durP2;ratioP2;P2;SDS_P1;SDS_P2;PMS_P1;PMS_P2;Temp;Humidity;BMP_temperature;BMP_pressure;BME280_temperature;BME280_humidity;BME280_pressure;Samples;Min_cycle;Max_cycle;Signal;HPM_P1;HPM_P2
2021/09/14 00:02:12;;;;;;;19.95;14.80;;;14.80;82.60;;;;;;5054273;28;20021;-36
2021/09/14 00:04:39;;;;;;;23.20;15.30;;;14.80;82.90;;;;;;5054563;28;20021;-38
2021/09/14 00:07:05;;;;;;;23.67;14.60;;;14.70;83.10;;;;;;5054305;28;20047;-36
2021/09/14 00:09:31;;;;;;;21.67;14.93;;;14.70;83.20;;;;;;5036405;28;20017;-36
2021/09/14 00:11:56;;;;;;;22.63;16.35;;;14.90;82.70;;;;;;5054070;28;20047;-36
2021/09/14 00:14:22;;;;;;;22.33;13.90;;;15.00;82.30;;;;;;5054141;28;20168;-36
2021/09/14 00:16:48;;;;;;;19.15;13.20;;;14.90;82.10;;;;;;5054162;28;20021;-38
2021/09/14 00:19:15;;;;;;;18.65;13.90;;;14.80;82.60;;;;;;5054307;28;20108;-37
2021/09/14 00:21:40;;;;;;;16.58;12.55;;;14.70;83.10;;;;;;5054222;28;20029;-38
2021/09/14 00:24:06;;;;;;;19.58;11.52;;;14.60;83.30;;;;;;5053891;28;20092;-38
2021/09/14 00:26:32;;;;;;;19.48;11.27;;;14.70;83.10;;;;;;5054517;28;20407;-38
2021/09/14 00:28:58;;;;;;;18.52;12.65;;;14.60;83.40;;;;;;5054180;28;20025;-38
2021/09/14 00:31:25;;;;;;;18.77;11.48;;;14.60;83.30;;;;;;5052503;28;20060;-38
2021/09/14 00:33:50;;;;;;;18.15;11.13;;;14.60;83.50;;;;;;5053888;28;20017;-38
2021/09/14 00:36:16;;;;;;;15.45;9.43;;;14.50;83.60;;;;;;5053666;28;20392;-36
2021/09/14 00:38:42;;;;;;;15.60;10.68;;;14.50;83.80;;;;;;5053796;28;20083;-36
2021/09/14 00:41:07;;;;;;;14.30;11.48;;;14.60;83.80;;;;;;5054453;28;20118;-36
2021/09/14 00:43:33;;;;;;;12.75;9.77;;;14.60;83.40;;;;;;5053602;28;20342;-37
2021/09/14 00:45:58;;;;;;;20.98;10.23;;;14.60;83.40;;;;;;5053371;28;20083;-36
2021/09/14 00:48:24;;;;;;;15.10;10.52;;;14.60;83.50;;;;;;5053732;28;20112;-37
2021/09/14 00:50:50;;;;;;;15.77;10.13;;;14.50;83.80;;;;;;5053519;28;20055;-36
2021/09/14 00:53:16;;;;;;;18.45;10.82;;;14.50;83.80;;;;;;5035590;28;20028;-37
2021/09/14 00:55:42;;;;;;;16.13;11.27;;;14.60;83.60;;;;;;5053523;28;20025;-37
2021/09/14 00:58:07;;;;;;;13.57;10.15;;;14.50;84.00;;;;;;5053267;28;20021;-36
2021/09/14 01:00:33;;;;;;;21.83;9.95;;;14.60;83.70;;;;;;5053020;28;20052;-36
2021/09/14 01:03:00;;;;;;;15.15;10.95;;;14.50;83.80;;;;;;5053312;28;20059;-36
2021/09/14 01:05:25;;;;;;;15.23;9.95;;;14.60;83.80;;;;;;5053150;28;20025;-37
2021/09/14 01:07:52;;;;;;;16.10;10.63;;;14.50;83.40;;;;;;5053088;28;20029;-37
2021/09/14 01:10:18;;;;;;;16.80;10.50;;;14.40;84.20;;;;;;5053044;28;20434;-38
2021/09/14 01:12:45;;;;;;;14.25;10.77;;;14.50;84.10;;;;;;5051768;28;20021;-38
2021/09/14 01:15:11;;;;;;;17.58;10.65;;;14.40;84.00;;;;;;5052736;28;20417;-38
2021/09/14 01:17:37;;;;;;;17.10;10.20;;;14.40;84.20;;;;;;5052992;28;20036;-37
2021/09/14 01:20:04;;;;;;;15.25;9.85;;;14.30;84.50;;;;;;5052296;28;20092;-38
2021/09/14 01:22:31;;;;;;;20.08;14.05;;;14.30;84.70;;;;;;5052303;28;20404;-38
2021/09/14 01:24:58;;;;;;;19.15;12.65;;;14.30;84.70;;;;;;5052971;28;20108;-37
2021/09/14 01:27:23;;;;;;;16.00;11.25;;;14.30;84.60;;;;;;5052896;28;20025;-38
2021/09/14 01:32:33;;;;;;;15.65;11.30;;;14.20;84.90;;;;;;5052674;28;20120;-37
2021/09/14 01:35:10;;;;;;;13.75;11.13;;;14.20;84.90;;;;;;5052886;28;20104;-38
2021/09/14 01:37:35;;;;;;;16.85;11.75;;;14.20;85.30;;;;;;5052736;28;20052;-37
2021/09/14 01:40:01;;;;;;;19.63;12.10;;;14.10;85.30;;;;;;5052915;28;20048;-37
2021/09/14 01:42:26;;;;;;;16.73;12.25;;;14.10;85.40;;;;;;5053134;28;20044;-38
2021/09/14 01:44:52;;;;;;;19.42;11.60;;;14.10;85.30;;;;;;5051697;28;20021;-37
2021/09/14 01:47:18;;;;;;;18.45;12.55;;;14.10;85.50;;;;;;5052665;28;20049;-37
2021/09/14 01:49:44;;;;;;;19.13;12.32;;;14.10;85.30;;;;;;5052944;28;20027;-37
2021/09/14 01:52:09;;;;;;;16.77;12.40;;;14.00;85.40;;;;;;5052867;28;20025;-37
2021/09/14 01:54:35;;;;;;;18.70;12.52;;;14.00;85.70;;;;;;5052654;28;20029;-37
2021/09/14 01:57:00;;;;;;;19.25;12.13;;;13.90;85.70;;;;;;5052621;28;20036;-37
2021/09/14 01:59:26;;;;;;;16.10;12.00;;;13.90;86.00;;;;;;5051236;28;20473;-37
2021/09/14 02:01:59;;;;;;;18.77;13.15;;;14.00;85.80;;;;;;5052828;28;20044;-37
2021/09/14 02:40:33;;;;;;;19.27;14.18;;;13.60;87.30;;;;;;5056235;28;20111;-37
2021/09/14 02:58:46;;;;;;;21.88;15.63;;;13.50;88.00;;;;;;5055581;28;20013;-37
2021/09/14 03:01:14;;;;;;;20.02;14.27;;;13.50;87.70;;;;;;5055728;28;20032;-37
2021/09/14 03:03:42;;;;;;;26.20;13.93;;;13.50;87.20;;;;;;5055465;28;20025;-37
2021/09/14 03:06:12;;;;;;;19.23;13.63;;;13.50;87.30;;;;;;5055795;28;20048;-38
2021/09/14 03:08:42;;;;;;;20.23;14.25;;;13.30;87.80;;;;;;5055671;28;20025;-37
2021/09/14 03:11:11;;;;;;;18.60;13.00;;;13.20;88.20;;;;;;5054002;28;20025;-37
2021/09/14 03:13:37;;;;;;;17.77;13.90;;;13.20;88.50;;;;;;5055251;28;20021;-38
2021/09/14 03:16:05;;;;;;;16.50;12.90;;;13.20;88.60;;;;;;5055265;28;20504;-38
2021/09/14 03:18:30;;;;;;;19.33;14.02;;;13.20;88.60;;;;;;5055171;28;20021;-37
2021/09/14 03:20:56;;;;;;;23.20;13.80;;;13.10;88.70;;;;;;5055664;28;20027;-37
2021/09/14 03:23:22;;;;;;;19.30;13.60;;;13.10;88.90;;;;;;5053844;28;20025;-37
2021/09/14 03:25:47;;;;;;;20.13;13.70;;;13.10;88.90;;;;;;5054936;28;20033;-37
2021/09/14 03:28:13;;;;;;;19.30;13.98;;;13.10;88.80;;;;;;5055108;28;20052;-37
2021/09/14 03:30:39;;;;;;;21.50;15.27;;;13.00;88.90;;;;;;5053496;28;20059;-37
2021/09/14 03:33:04;;;;;;;21.75;13.25;;;13.10;88.90;;;;;;5054875;28;20037;-37
2021/09/14 03:35:30;;;;;;;16.00;12.65;;;13.00;88.90;;;;;;5055076;28;20043;-37
2021/09/14 03:37:56;;;;;;;21.73;14.52;;;13.00;89.10;;;;;;5055274;28;20096;-37
2021/09/14 03:40:22;;;;;;;22.80;14.93;;;12.90;89.00;;;;;;5054895;28;20112;-37
2021/09/14 03:42:48;;;;;;;21.02;14.52;;;13.00;89.10;;;;;;5054778;28;20033;-37
2021/09/14 03:45:14;;;;;;;23.17;15.60;;;12.90;89.20;;;;;;5053319;28;20058;-37
2021/09/14 03:47:40;;;;;;;25.38;15.60;;;13.10;89.00;;;;;;5053903;28;20416;-37
2021/09/14 03:50:06;;;;;;;24.40;15.40;;;13.20;88.50;;;;;;5053913;28;20104;-37
2021/09/14 03:52:32;;;;;;;22.75;14.90;;;13.00;88.70;;;;;;5054184;28;20078;-37
2021/09/14 03:54:58;;;;;;;22.08;16.15;;;13.00;88.90;;;;;;5053834;28;20482;-37
2021/09/14 03:57:23;;;;;;;21.05;15.38;;;12.90;89.10;;;;;;5053689;28;20381;-37
2021/09/14 03:59:49;;;;;;;20.63;15.18;;;13.00;89.10;;;;;;5052562;28;20102;-37
2021/09/14 04:02:24;;;;;;;28.77;17.50;;;12.90;89.20;;;;;;5053767;28;20108;-37
2021/09/14 04:10:04;;;;;;;26.10;16.33;;;13.20;88.40;;;;;;5053816;28;20029;-37
2021/09/14 04:12:29;;;;;;;31.15;18.67;;;13.10;88.60;;;;;;5053905;28;20021;-37
2021/09/14 04:14:55;;;;;;;29.77;20.55;;;13.20;88.70;;;;;;5054249;28;20384;-37
2021/09/14 04:17:21;;;;;;;24.83;18.05;;;13.20;88.80;;;;;;5053996;28;20036;-37
2021/09/14 04:19:46;;;;;;;25.45;18.20;;;13.10;88.70;;;;;;5053859;28;20028;-37
2021/09/14 04:22:12;;;;;;;27.50;18.08;;;13.10;88.70;;;;;;5054074;28;20136;-37
2021/09/14 04:24:38;;;;;;;27.58;18.38;;;13.10;88.90;;;;;;5053865;28;20100;-38
2021/09/14 04:27:05;;;;;;;26.85;20.23;;;13.20;88.80;;;;;;5053832;28;20075;-37
2021/09/14 04:29:31;;;;;;;27.77;18.15;;;13.20;88.60;;;;;;5053920;28;20083;-38
2021/09/14 04:31:56;;;;;;;26.38;17.67;;;13.10;88.90;;;;;;5053786;28;20060;-38
2021/09/14 04:34:22;;;;;;;27.75;19.30;;;13.00;88.80;;;;;;5054085;28;20029;-38
2021/09/14 04:36:48;;;;;;;24.73;17.65;;;12.90;89.10;;;;;;5053733;28;20421;-38
2021/09/14 04:39:14;;;;;;;25.27;18.88;;;12.80;89.40;;;;;;5053889;28;20070;-38
2021/09/14 04:41:39;;;;;;;26.10;19.17;;;12.80;89.50;;;;;;5053988;28;20024;-37
2021/09/14 04:44:05;;;;;;;29.08;18.92;;;12.80;90.00;;;;;;5053811;28;20122;-37
2021/09/14 04:46:31;;;;;;;29.00;20.35;;;12.90;89.40;;;;;;5053397;28;20473;-37
2021/09/14 04:48:56;;;;;;;28.42;20.85;;;13.00;89.30;;;;;;5052291;28;20033;-37
2021/09/14 04:51:22;;;;;;;27.17;19.15;;;13.00;89.30;;;;;;5051891;28;20029;-37
2021/09/14 04:53:48;;;;;;;33.00;20.50;;;13.00;89.20;;;;;;5053340;28;20052;-37
2021/09/14 04:56:13;;;;;;;28.05;18.20;;;13.00;89.20;;;;;;5053110;28;20023;-38
2021/09/14 04:58:41;;;;;;;28.55;19.17;;;13.00;89.20;;;;;;5053450;28;20075;-37
2021/09/14 05:01:06;;;;;;;33.75;20.83;;;13.00;89.10;;;;;;5053367;28;20048;-38
2021/09/14 05:03:32;;;;;;;29.75;20.73;;;12.90;89.10;;;;;;5052216;28;20074;-35
2021/09/14 05:05:58;;;;;;;29.25;20.15;;;12.90;89.20;;;;;;5053615;28;20393;-37
2021/09/14 05:08:23;;;;;;;33.28;21.35;;;12.90;89.20;;;;;;5053393;28;20070;-37
2021/09/14 05:10:50;;;;;;;26.95;19.88;;;12.90;89.20;;;;;;5053242;28;20045;-37
2021/09/14 05:13:16;;;;;;;32.35;19.65;;;13.00;89.10;;;;;;5053179;28;20059;-37
2021/09/14 05:15:41;;;;;;;29.60;18.98;;;12.90;89.10;;;;;;5053402;28;20036;-38
2021/09/14 05:18:11;;;;;;;27.80;18.60;;;13.00;89.10;;;;;;5053259;28;20473;-36
2021/09/14 05:20:39;;;;;;;30.13;19.77;;;12.90;89.20;;;;;;5052819;28;20025;-36
2021/09/14 05:23:13;;;;;;;31.50;19.77;;;12.90;89.10;;;;;;5052583;28;20029;-37
2021/09/14 05:25:40;;;;;;;37.08;21.85;;;12.90;89.10;;;;;;5052882;28;20033;-37
2021/09/14 05:28:06;;;;;;;29.27;19.52;;;12.90;88.90;;;;;;5052624;28;20025;-37
2021/09/14 05:30:31;;;;;;;27.08;19.65;;;12.90;89.00;;;;;;5052727;28;20558;-36
2021/09/14 05:32:57;;;;;;;31.58;19.15;;;13.00;88.80;;;;;;5052517;28;20025;-37
2021/09/14 05:35:28;;;;;;;29.65;18.77;;;13.00;88.80;;;;;;5052918;28;20025;-38
2021/09/14 05:37:54;;;;;;;26.70;18.73;;;12.90;88.70;;;;;;5052600;28;20023;-37
2021/09/14 05:40:20;;;;;;;29.80;21.55;;;12.90;89.10;;;;;;5052532;28;20522;-36
2021/09/14 05:42:46;;;;;;;30.35;18.70;;;13.00;88.70;;;;;;5052587;28;20105;-37
2021/09/14 05:45:12;;;;;;;28.38;18.60;;;13.00;88.70;;;;;;5052459;28;20059;-36
2021/09/14 05:47:37;;;;;;;24.60;16.98;;;13.00;88.80;;;;;;5052536;28;20041;-36
2021/09/14 05:50:04;;;;;;;27.50;18.17;;;13.00;88.70;;;;;;5052646;28;20029;-36
2021/09/14 05:52:29;;;;;;;32.22;18.70;;;13.00;88.80;;;;;;5052395;28;20116;-37
2021/09/14 05:54:58;;;;;;;29.70;17.98;;;13.10;88.60;;;;;;5052711;28;20031;-37
2021/09/14 05:57:23;;;;;;;29.08;17.45;;;13.20;88.50;;;;;;5052224;28;20021;-37
2021/09/14 05:59:49;;;;;;;27.05;19.77;;;13.20;88.40;;;;;;5052517;28;20036;-36
2021/09/14 06:02:18;;;;;;;25.63;18.52;;;13.30;87.80;;;;;;5052914;28;20036;-37
2021/09/14 06:04:43;;;;;;;35.40;19.85;;;13.30;88.00;;;;;;5052728;28;20044;-37
2021/09/14 06:07:10;;;;;;;30.92;19.13;;;13.50;87.40;;;;;;5053561;28;20033;-37
2021/09/14 06:09:35;;;;;;;26.40;18.38;;;13.50;87.20;;;;;;5055983;28;20397;-37
2021/09/14 06:12:01;;;;;;;25.77;18.33;;;13.50;86.90;;;;;;5057229;28;20114;-37
2021/09/14 06:14:26;;;;;;;27.33;18.05;;;13.50;86.90;;;;;;5055988;28;20017;-37
2021/09/14 06:16:52;;;;;;;24.60;17.45;;;13.60;86.90;;;;;;5055776;28;20037;-37
2021/09/14 06:19:18;;;;;;;26.65;16.17;;;13.70;86.70;;;;;;5054684;28;20025;-37
2021/09/14 06:21:44;;;;;;;27.88;17.30;;;13.70;86.70;;;;;;5055604;28;20165;-37
2021/09/14 06:24:10;;;;;;;21.45;16.05;;;13.80;86.30;;;;;;5056061;28;20037;-37
2021/09/14 06:26:35;;;;;;;27.10;17.33;;;13.80;86.40;;;;;;5055410;28;20100;-36
2021/09/14 06:29:01;;;;;;;23.98;16.55;;;13.80;86.40;;;;;;5054232;28;20028;-36
2021/09/14 06:31:27;;;;;;;23.95;16.02;;;13.90;86.10;;;;;;5055306;28;20025;-37
2021/09/14 06:33:52;;;;;;;22.23;15.13;;;14.00;85.60;;;;;;5055517;28;20025;-37
2021/09/14 06:36:18;;;;;;;20.80;15.88;;;14.00;85.40;;;;;;5055748;28;20075;-37
2021/09/14 06:38:43;;;;;;;23.50;16.70;;;14.10;85.30;;;;;;5055232;28;20097;-37
2021/09/14 06:41:09;;;;;;;36.10;17.52;;;14.20;84.70;;;;;;5055526;28;20035;-38
2021/09/14 06:43:35;;;;;;;22.00;15.65;;;14.30;84.90;;;;;;5054119;28;20052;-37
2021/09/14 06:46:01;;;;;;;22.35;15.60;;;14.40;84.40;;;;;;5055119;28;20160;-37
2021/09/14 06:48:27;;;;;;;20.00;14.65;;;14.40;84.20;;;;;;5053593;28;20063;-37
2021/09/14 06:50:52;;;;;;;25.00;15.23;;;14.50;84.20;;;;;;5054669;28;20039;-37
2021/09/14 06:53:18;;;;;;;24.35;14.02;;;14.40;84.40;;;;;;5054395;28;20032;-37
2021/09/14 06:56:08;;;;;;;17.85;14.15;;;14.50;84.40;;;;;;5056176;28;20203;-38
2021/09/14 06:58:33;;;;;;;21.60;14.40;;;14.80;83.50;;;;;;5055454;28;20041;-38
2021/09/14 07:01:02;;;;;;;23.25;14.65;;;15.10;82.50;;;;;;5055600;28;20021;-37
2021/09/14 07:03:27;;;;;;;16.55;14.10;;;15.30;81.90;;;;;;5056092;28;20036;-37
2021/09/14 07:05:53;;;;;;;24.20;14.63;;;15.50;81.30;;;;;;5055346;28;20473;-36
2021/09/14 07:08:19;;;;;;;17.88;14.32;;;15.80;80.10;;;;;;5055197;28;20033;-36
2021/09/14 07:10:45;;;;;;;18.88;14.55;;;15.90;79.90;;;;;;5055392;28;20530;-37
2021/09/14 07:13:10;;;;;;;19.55;13.38;;;15.90;79.60;;;;;;5053951;28;20032;-38
2021/09/14 07:15:36;;;;;;;26.15;13.77;;;16.30;78.60;;;;;;5053871;28;20024;-38
2021/09/14 07:18:02;;;;;;;18.15;11.60;;;16.70;77.60;;;;;;5053601;28;20476;-37
2021/09/14 07:20:28;;;;;;;18.40;12.15;;;16.90;76.30;;;;;;5053833;28;20025;-38
2021/09/14 07:22:54;;;;;;;14.85;11.82;;;16.80;76.10;;;;;;5053598;28;20042;-38
2021/09/14 07:25:19;;;;;;;18.38;12.18;;;17.00;75.80;;;;;;5054838;28;20021;-37
2021/09/14 07:27:46;;;;;;;14.00;10.80;;;17.20;75.50;;;;;;5055402;28;20037;-41
2021/09/14 07:30:12;;;;;;;15.48;11.63;;;17.40;74.10;;;;;;5053506;28;20170;-36
2021/09/14 07:32:37;;;;;;;17.25;12.40;;;17.40;74.20;;;;;;5053185;28;20025;-36
2021/09/14 07:35:04;;;;;;;15.57;11.77;;;17.40;74.20;;;;;;5054736;28;20036;-37
2021/09/14 07:37:31;;;;;;;17.75;10.93;;;17.20;75.10;;;;;;5054446;28;20060;-38
2021/09/14 07:39:56;;;;;;;16.17;12.55;;;17.20;75.50;;;;;;5053905;28;20070;-39
2021/09/14 07:42:22;;;;;;;15.63;11.38;;;17.30;75.40;;;;;;5053715;28;20108;-38
2021/09/14 07:44:50;;;;;;;14.50;11.80;;;17.30;75.40;;;;;;5052698;28;20025;-38
2021/09/14 07:47:16;;;;;;;16.80;11.18;;;17.30;75.70;;;;;;5053925;28;20456;-38
2021/09/14 07:49:41;;;;;;;18.10;10.48;;;17.30;75.60;;;;;;5054374;28;20470;-37
2021/09/14 07:52:07;;;;;;;16.48;11.25;;;17.40;75.50;;;;;;5054228;28;20032;-38
2021/09/14 07:54:33;;;;;;;12.70;10.50;;;17.40;75.60;;;;;;5053815;28;20085;-38
2021/09/14 07:57:00;;;;;;;13.93;10.65;;;17.70;74.90;;;;;;5053908;28;20017;-37
2021/09/14 07:59:25;;;;;;;13.35;11.23;;;17.80;73.90;;;;;;5054168;28;20028;-37
2021/09/14 08:01:53;;;;;;;19.27;11.52;;;17.70;74.20;;;;;;5054217;28;20025;-40
2021/09/14 08:04:19;;;;;;;15.93;10.85;;;17.80;73.90;;;;;;5053964;28;20405;-37
2021/09/14 08:06:45;;;;;;;14.13;10.43;;;18.20;73.30;;;;;;5053440;28;20114;-36
2021/09/14 08:09:10;;;;;;;16.90;10.93;;;18.00;73.60;;;;;;5053157;28;20323;-38
2021/09/14 08:11:36;;;;;;;16.38;12.40;;;18.40;73.00;;;;;;5053649;28;20025;-37
2021/09/14 08:14:02;;;;;;;15.05;12.40;;;18.70;72.00;;;;;;5053365;28;20032;-37
2021/09/14 08:16:28;;;;;;;14.00;11.57;;;18.70;71.70;;;;;;5053176;28;20013;-38
2021/09/14 08:18:53;;;;;;;14.40;11.15;;;18.70;71.10;;;;;;5052918;28;20049;-38
2021/09/14 08:21:19;;;;;;;12.98;11.45;;;18.80;71.10;;;;;;5053000;28;20025;-37
2021/09/14 08:23:44;;;;;;;16.65;11.55;;;19.00;70.30;;;;;;5053160;28;20025;-37
2021/09/14 08:26:10;;;;;;;13.63;10.15;;;19.30;69.80;;;;;;5051927;28;20527;-37
2021/09/14 08:28:36;;;;;;;12.25;9.63;;;19.30;69.90;;;;;;5053215;28;20025;-36
2021/09/14 08:31:02;;;;;;;15.65;11.00;;;19.80;69.10;;;;;;5050822;28;20029;-36
2021/09/14 08:33:28;;;;;;;12.52;10.13;;;19.60;69.00;;;;;;5051286;28;20093;-36
2021/09/14 08:35:54;;;;;;;12.13;9.43;;;19.70;68.70;;;;;;5053409;28;20469;-36
2021/09/14 08:38:19;;;;;;;13.40;9.65;;;19.90;68.30;;;;;;5052640;28;20025;-36
2021/09/14 08:40:47;;;;;;;15.13;10.07;;;19.90;68.10;;;;;;5052607;28;20078;-36
2021/09/14 08:43:14;;;;;;;18.52;11.07;;;19.80;68.30;;;;;;5052965;28;20107;-36
2021/09/14 08:45:40;;;;;;;12.50;10.38;;;19.70;69.00;;;;;;5052396;28;20037;-36
2021/09/14 08:48:06;;;;;;;16.23;10.77;;;20.60;66.80;;;;;;5052349;28;20124;-36
2021/09/14 08:50:32;;;;;;;15.77;10.63;;;20.50;65.90;;;;;;5052178;28;20059;-36
2021/09/14 08:52:58;;;;;;;15.27;10.45;;;20.80;65.50;;;;;;5052594;28;20035;-36
2021/09/14 08:55:24;;;;;;;20.85;10.00;;;21.10;64.60;;;;;;5052303;28;20025;-36
2021/09/14 08:57:51;;;;;;;38.88;10.60;;;21.40;63.50;;;;;;5052691;28;20021;-36
2021/09/14 09:00:41;;;;;;;13.57;9.23;;;21.60;62.50;;;;;;5050883;28;20021;-37
2021/09/14 09:03:07;;;;;;;14.85;10.00;;;21.60;62.50;;;;;;5052255;28;20119;-36
2021/09/14 09:05:42;;;;;;;13.77;9.80;;;21.30;63.50;;;;;;5052444;28;20029;-36
2021/09/14 09:08:23;;;;;;;15.60;11.25;;;21.10;64.40;;;;;;5052380;28;20021;-37
2021/09/14 09:11:00;;;;;;;10.90;9.82;;;20.70;66.40;;;;;;5052685;28;20488;-37
2021/09/14 09:13:29;;;;;;;20.13;12.00;;;21.50;63.70;;;;;;5052492;28;20358;-38
2021/09/14 09:15:54;;;;;;;11.45;9.00;;;21.70;62.80;;;;;;5052672;28;20028;-38
2021/09/14 09:18:21;;;;;;;13.70;9.98;;;21.90;62.30;;;;;;5051955;28;20408;-38
2021/09/14 09:20:48;;;;;;;12.50;10.25;;;22.20;61.30;;;;;;5052083;28;20032;-38
2021/09/14 09:23:23;;;;;;;14.57;10.40;;;22.40;61.60;;;;;;5053277;28;20496;-38
2021/09/14 09:26:02;;;;;;;15.43;10.77;;;22.90;59.40;;;;;;5053201;28;20022;-38
2021/09/14 09:28:28;;;;;;;11.83;9.93;;;24.00;56.50;;;;;;5051507;28;20112;-37
2021/09/14 09:30:59;;;;;;;11.65;9.27;;;23.90;56.30;;;;;;5051773;28;20095;-38
2021/09/14 09:33:29;;;;;;;13.30;9.63;;;24.70;54.50;;;;;;5052050;28;20029;-37
2021/09/14 09:36:06;;;;;;;13.48;9.18;;;24.70;53.40;;;;;;5052008;28;20017;-37
2021/09/14 09:38:47;;;;;;;13.50;9.70;;;24.60;53.60;;;;;;5052265;28;20112;-38
2021/09/14 09:41:18;;;;;;;12.18;8.88;;;24.30;53.50;;;;;;5052653;28;20500;-38
2021/09/14 09:43:44;;;;;;;10.18;9.00;;;25.00;52.10;;;;;;5056257;28;20025;-37
2021/09/14 09:46:17;;;;;;;13.73;10.25;;;24.70;52.20;;;;;;5055906;28;20378;-37
2021/09/14 09:48:43;;;;;;;14.05;10.20;;;24.20;54.10;;;;;;5056043;28;20029;-38
2021/09/14 09:51:08;;;;;;;11.82;8.10;;;25.30;50.90;;;;;;5054496;28;20081;-38
2021/09/14 09:53:35;;;;;;;12.55;9.10;;;26.10;49.10;;;;;;5056051;28;20025;-38
2021/09/14 09:56:02;;;;;;;8.25;7.45;;;25.70;49.50;;;;;;5055909;28;20369;-38
2021/09/14 09:58:28;;;;;;;10.80;9.07;;;25.20;51.40;;;;;;5055773;28;20131;-38
2021/09/14 10:01:12;;;;;;;9.88;8.55;;;25.30;50.90;;;;;;5055691;28;20067;-38
2021/09/14 10:03:47;;;;;;;12.20;8.88;;;25.70;48.90;;;;;;5055954;28;20029;-38
2021/09/14 10:06:15;;;;;;;12.50;8.27;;;25.70;48.30;;;;;;5055682;28;20528;-38
2021/09/14 10:08:40;;;;;;;11.27;9.68;;;25.90;48.80;;;;;;5055607;28;20104;-37
2021/09/14 10:11:06;;;;;;;10.73;8.07;;;26.60;47.90;;;;;;5055749;28;20440;-37
2021/09/14 10:13:39;;;;;;;12.27;8.52;;;26.50;47.50;;;;;;5055640;28;20043;-38
2021/09/14 10:16:04;;;;;;;10.07;7.75;;;25.40;49.90;;;;;;5055471;28;20025;-37
2021/09/14 10:18:33;;;;;;;14.85;8.63;;;26.30;48.20;;;;;;5055216;28;20092;-37
2021/09/14 10:20:59;;;;;;;13.15;7.55;;;27.10;46.20;;;;;;5055714;28;20021;-37
2021/09/14 10:23:38;;;;;;;12.98;8.30;;;26.50;47.30;;;;;;5055071;28;20021;-36
2021/09/14 10:26:13;;;;;;;10.40;7.13;;;26.40;48.00;;;;;;5055171;28;20029;-38
2021/09/14 10:28:43;;;;;;;15.77;9.38;;;26.60;46.90;;;;;;5054688;28;20029;-37
2021/09/14 10:31:26;;;;;;;11.00;7.75;;;26.70;46.70;;;;;;5054850;28;20119;-37
2021/09/14 10:34:05;;;;;;;10.43;8.43;;;26.50;47.60;;;;;;5054733;28;20107;-38
2021/09/14 10:36:33;;;;;;;12.25;7.88;;;26.30;48.00;;;;;;5054641;28;20074;-38
2021/09/14 10:38:59;;;;;;;12.25;8.82;;;26.80;47.00;;;;;;5054591;28;20025;-38
2021/09/14 10:41:40;;;;;;;13.98;8.30;;;27.50;45.50;;;;;;5054785;28;20057;-38
2021/09/14 10:44:09;;;;;;;7.97;7.18;;;27.60;45.30;;;;;;5054833;28;20033;-37
2021/09/14 10:46:37;;;;;;;9.60;8.40;;;27.80;44.80;;;;;;5053190;28;20053;-38
2021/09/14 10:49:15;;;;;;;10.88;8.73;;;28.10;44.20;;;;;;5054789;28;20052;-37
2021/09/14 10:51:52;;;;;;;11.32;8.07;;;27.30;45.60;;;;;;5053747;28;20370;-37
2021/09/14 10:54:20;;;;;;;14.75;9.13;;;26.00;48.20;;;;;;5053232;28;20021;-38
2021/09/14 10:56:49;;;;;;;13.38;8.75;;;25.30;50.30;;;;;;5054766;28;20017;-37
2021/09/14 10:59:18;;;;;;;12.75;8.52;;;25.30;50.70;;;;;;5054723;28;20032;-38
2021/09/14 11:01:46;;;;;;;10.57;7.80;;;25.90;49.80;;;;;;5054469;28;20029;-37
2021/09/14 11:04:12;;;;;;;19.25;9.13;;;26.50;48.00;;;;;;5054805;28;20029;-37
2021/09/14 11:06:38;;;;;;;12.30;8.35;;;26.90;47.00;;;;;;5054485;28;20029;-38
2021/09/14 11:09:06;;;;;;;13.85;9.00;;;27.30;46.30;;;;;;5054239;28;20025;-40
2021/09/14 11:11:31;;;;;;;12.80;8.38;;;27.30;46.10;;;;;;5053965;28;20060;-36
2021/09/14 11:13:57;;;;;;;13.98;8.55;;;27.40;45.90;;;;;;5053890;28;20055;-38
2021/09/14 11:16:23;;;;;;;10.95;7.90;;;28.10;44.30;;;;;;5054760;28;20024;-37
2021/09/14 12:18:49;;;;;;;8.55;5.13;;;26.70;48.80;;;;;;5070031;28;20854;-38
2021/09/14 12:21:15;;;;;;;9.57;5.10;;;27.00;48.20;;;;;;5067734;28;20094;-38
2021/09/14 12:23:40;;;;;;;13.60;5.72;;;26.80;49.10;;;;;;5069284;28;20082;-36
2021/09/14 12:26:28;;;;;;;5.68;4.88;;;26.50;49.50;;;;;;5069293;28;20098;-36
2021/09/14 12:28:58;;;;;;;7.43;5.57;;;26.40;49.90;;;;;;5068909;28;20109;-37
2021/09/14 12:31:25;;;;;;;7.68;5.57;;;26.40;49.80;;;;;;5069520;28;20472;-36
2021/09/14 12:33:51;;;;;;;10.15;4.35;;;27.20;48.60;;;;;;5069150;28;20040;-37
2021/09/14 12:36:17;;;;;;;8.07;4.88;;;27.30;48.10;;;;;;5068779;28;20067;-37
2021/09/14 12:38:44;;;;;;;10.90;5.38;;;27.70;47.30;;;;;;5069025;28;20052;-37
2021/09/14 12:41:10;;;;;;;6.32;4.78;;;28.00;46.00;;;;;;5069455;28;20384;-38
2021/09/14 12:43:36;;;;;;;14.38;6.28;;;27.30;47.90;;;;;;5069318;28;20016;-38
2021/09/14 12:46:03;;;;;;;13.43;5.00;;;26.60;49.40;;;;;;5069583;28;20421;-37
2021/09/14 12:48:29;;;;;;;6.97;5.45;;;26.70;49.40;;;;;;5069029;28;20107;-38
2021/09/14 12:50:55;;;;;;;10.95;6.07;;;26.30;50.70;;;;;;5068976;28;20057;-36
2021/09/14 12:53:20;;;;;;;8.80;4.97;;;26.50;50.60;;;;;;5068803;28;20123;-37
2021/09/14 12:55:46;;;;;;;9.90;4.80;;;26.30;51.30;;;;;;5068831;28;20029;-39
2021/09/14 12:58:12;;;;;;;11.77;6.30;;;26.00;51.90;;;;;;5068666;28;20043;-37
2021/09/14 13:00:37;;;;;;;9.15;4.85;;;25.40;53.40;;;;;;5068804;28;20035;-39
2021/09/14 13:03:04;;;;;;;7.80;5.05;;;25.30;54.10;;;;;;5068239;28;20064;-38
2021/09/14 13:05:32;;;;;;;11.57;5.32;;;25.50;54.00;;;;;;5068950;28;20021;-38
2021/09/14 13:07:58;;;;;;;14.70;5.20;;;25.60;53.60;;;;;;5068973;28;20029;-38
2021/09/14 13:10:24;;;;;;;9.20;5.03;;;25.80;53.90;;;;;;5068814;28;20086;-39
2021/09/14 13:16:09;;;;;;;8.23;4.72;;;25.80;53.60;;;;;;5068567;28;20114;-39
2021/09/14 13:18:23;;;;;;;9.18;5.65;;;25.80;53.30;;;;;;5068851;28;20149;-42
2021/09/14 13:20:49;;;;;;;8.40;5.15;;;25.80;53.20;;;;;;5068972;28;20017;-38
2021/09/14 13:23:15;;;;;;;11.68;5.05;;;26.20;52.60;;;;;;5068863;28;20459;-39
2021/09/14 13:25:41;;;;;;;8.63;5.70;;;26.20;52.60;;;;;;5066949;28;20032;-38
2021/09/14 13:28:06;;;;;;;10.65;4.90;;;25.90;52.70;;;;;;5066089;28;20025;-38
2021/09/14 13:30:32;;;;;;;14.77;6.53;;;25.60;54.10;;;;;;5053474;28;20033;-38
2021/09/14 13:32:57;;;;;;;9.57;5.20;;;25.40;54.20;;;;;;5054944;28;20059;-37
2021/09/14 13:35:23;;;;;;;11.32;5.95;;;25.20;54.80;;;;;;5054709;28;20431;-45
2021/09/14 13:37:49;;;;;;;8.88;5.50;;;25.10;55.00;;;;;;5054976;28;20056;-38
2021/09/14 13:40:15;;;;;;;7.97;5.20;;;25.20;55.10;;;;;;5053589;28;20025;-38
2021/09/14 13:42:40;;;;;;;11.68;5.18;;;25.40;55.10;;;;;;5053312;28;20081;-37
2021/09/14 13:47:50;;;;;;;7.55;5.72;;;25.50;54.50;;;;;;5054476;28;20124;-37
2021/09/14 13:50:16;;;;;;;5.03;4.03;;;25.60;54.50;;;;;;5054421;28;20394;-38
2021/09/14 13:52:42;;;;;;;8.30;4.95;;;25.50;54.40;;;;;;5053039;28;20025;-38
2021/09/14 13:55:08;;;;;;;18.30;6.78;;;25.40;54.60;;;;;;5053973;28;20071;-38
2021/09/14 13:57:34;;;;;;;8.55;5.13;;;25.30;54.90;;;;;;5054430;28;20541;-39
2021/09/14 13:59:59;;;;;;;13.95;9.07;;;25.40;55.10;;;;;;5053457;28;20021;-43
2021/09/14 14:02:26;;;;;;;7.95;4.68;;;25.60;54.90;;;;;;5054460;28;20311;-38
2021/09/14 14:04:52;;;;;;;9.15;5.20;;;25.80;54.20;;;;;;5052906;28;20033;-38
2021/09/14 14:07:18;;;;;;;9.65;5.90;;;25.90;54.30;;;;;;5052675;28;20373;-38
2021/09/14 14:09:44;;;;;;;7.43;5.05;;;26.50;52.50;;;;;;5053975;28;20025;-38
2021/09/14 14:12:09;;;;;;;7.97;5.63;;;26.70;51.60;;;;;;5054577;28;20029;-38
2021/09/14 14:14:35;;;;;;;7.35;4.78;;;27.00;50.90;;;;;;5054466;28;20100;-37
2021/09/14 14:17:00;;;;;;;9.73;4.68;;;27.00;50.10;;;;;;5052330;28;20052;-38
2021/09/14 14:19:27;;;;;;;9.80;4.85;;;27.30;49.90;;;;;;5052465;28;20036;-38
2021/09/14 14:21:53;;;;;;;16.58;12.63;;;27.10;50.50;;;;;;5054085;28;20107;-38
2021/09/14 14:24:19;;;;;;;7.68;5.53;;;26.80;51.50;;;;;;5054137;28;20060;-38
2021/09/14 14:26:44;;;;;;;9.52;5.68;;;26.80;51.20;;;;;;5053394;28;20108;-38
2021/09/14 14:29:10;;;;;;;11.18;5.30;;;26.80;51.10;;;;;;5053912;28;20056;-37
2021/09/14 14:31:36;;;;;;;8.60;5.35;;;26.80;51.80;;;;;;5054028;28;20025;-37
2021/09/14 14:34:01;;;;;;;8.63;5.30;;;26.50;52.40;;;;;;5052454;28;20029;-39
2021/09/14 14:36:27;;;;;;;9.50;5.45;;;26.20;53.20;;;;;;5054001;28;20025;-37